Time;durP1;ratioP1;P1;durP2;ratioP2;P2;SDS_P1;SDS_P2;PMS_P1;PMS_P2;Temp;Humidity;BMP_temperature;BMP_pressure;BME280_temperature;BME280_humidity;BME280_pressure;Samples;Min_cycle;Max_cycle;Signal;HPM_P1;HPM_P2
2023/01/25 00:00:30;;;;;;;8.47;5.90;;;;;;;-143.84;73.88;45212.84;5009146;28;20435;-71
2023/01/25 00:02:58;;;;;;;6.30;5.20;;;;;;;-143.84;73.85;45229.97;5009211;28;21349;-71
2023/01/25 00:05:25;;;;;;;5.40;4.90;;;;;;;-143.84;73.96;45226.16;4989628;28;20467;-71
2023/01/25 00:07:52;;;;;;;5.73;5.23;;;;;;;-143.84;74.18;45209.03;4988929;28;20934;-71
2023/01/25 00:10:20;;;;;;;5.80;5.20;;;;;;;-143.84;73.58;45237.59;4988901;28;20511;-71
2023/01/25 00:12:47;;;;;;;6.97;5.47;;;;;;;-143.84;74.24;45220.44;5012317;28;20498;-71
2023/01/25 00:15:15;;;;;;;7.27;4.80;;;;;;;-143.84;74.11;45197.59;5012242;28;20447;-71
2023/01/25 00:17:42;;;;;;;5.17;4.17;;;;;;;-143.84;73.93;45226.16;5012185;28;20498;-71
2023/01/25 00:20:11;;;;;;;6.87;5.13;;;;;;;-143.84;73.36;45228.06;5012065;28;20448;-71
2023/01/25 00:22:38;;;;;;;7.20;5.37;;;;;;;-143.84;73.41;45207.13;5012315;28;20483;-71
2023/01/25 00:25:06;;;;;;;10.27;6.03;;;;;;;-143.84;73.56;45199.50;5012056;28;20941;-71
2023/01/25 00:27:33;;;;;;;10.00;4.90;;;;;;;-143.84;73.50;45203.31;5011883;28;20443;-71
2023/01/25 00:30:00;;;;;;;6.23;4.70;;;;;;;-143.84;72.82;45212.84;5012120;28;20451;-71
2023/01/25 00:32:46;;;;;;;6.80;4.73;;;;;;;-143.84;72.97;45209.03;5012204;28;20442;-71
2023/01/25 00:35:15;;;;;;;7.33;6.00;;;;;;;-143.84;72.08;45245.19;5012050;28;21019;-71
2023/01/25 00:37:48;;;;;;;5.00;4.60;;;;;;;-143.84;71.05;45243.31;5011873;28;20454;-71
2023/01/25 00:40:16;;;;;;;5.30;4.67;;;;;;;-143.84;70.08;45262.34;5012008;28;20509;-71
2023/01/25 00:42:43;;;;;;;8.70;5.23;;;;;;;-143.84;69.40;45247.09;5011787;28;20896;-71
2023/01/25 00:45:12;;;;;;;6.90;5.10;;;;;;;-143.84;68.32;45235.69;5011641;28;20456;-71
2023/01/25 00:47:39;;;;;;;8.30;4.80;;;;;;;-143.84;68.18;45266.16;5014724;28;20866;-71
2023/01/25 00:50:08;;;;;;;11.60;6.03;;;;;;;-143.84;67.80;45266.16;5011631;28;20431;-71
2023/01/25 00:52:36;;;;;;;8.47;5.60;;;;;;;-143.84;68.38;45247.09;5011507;28;20463;-71
2023/01/25 00:55:04;;;;;;;6.70;4.73;;;;;;;-143.84;68.84;45256.63;5015900;28;20459;-71
2023/01/25 00:57:31;;;;;;;10.40;5.33;;;;;;;-143.84;68.64;45245.19;5031130;28;20509;-71
2023/01/25 00:59:58;;;;;;;6.63;4.70;;;;;;;-143.84;68.69;45266.16;5031351;28;20537;-71
2023/01/25 01:02:26;;;;;;;6.90;5.00;;;;;;;-143.84;67.33;45256.63;5030965;28;20478;-71
2023/01/25 01:04:55;;;;;;;8.50;5.23;;;;;;;-143.84;67.50;45241.41;5031016;28;20442;-71
2023/01/25 01:07:22;;;;;;;8.03;5.20;;;;;;;-143.84;67.53;45258.53;5031018;28;20533;-70
2023/01/25 01:09:50;;;;;;;7.30;5.23;;;;;;;-143.84;66.88;45256.63;5021744;28;20510;-71
2023/01/25 01:12:18;;;;;;;7.50;5.53;;;;;;;-143.84;66.78;45252.81;5011143;28;20440;-71
2023/01/25 01:14:45;;;;;;;5.70;5.07;;;;;;;-143.84;66.84;45243.31;5010678;28;20444;-71
2023/01/25 01:17:12;;;;;;;7.83;5.57;;;;;;;-143.84;66.42;45249.00;5010669;28;20460;-71
2023/01/25 01:19:39;;;;;;;7.40;5.60;;;;;;;-143.84;66.58;45243.31;5010672;28;20933;-71
2023/01/25 01:22:06;;;;;;;9.83;5.80;;;;;;;-143.84;66.99;45269.97;5010583;28;20935;-71
2023/01/25 01:24:33;;;;;;;6.67;5.53;;;;;;;-143.84;67.18;45256.63;5010659;28;20447;-71
2023/01/25 01:27:02;;;;;;;7.80;5.43;;;;;;;-143.84;66.95;45239.50;5010588;28;20439;-71
2023/01/25 01:29:29;;;;;;;7.57;5.60;;;;;;;-143.84;67.18;45256.63;4996171;28;20464;-72
2023/01/25 01:31:56;;;;;;;9.60;5.93;;;;;;;-143.84;67.43;45277.56;4989984;28;21042;-71
2023/01/25 01:34:23;;;;;;;7.90;5.13;;;;;;;-143.84;67.16;45254.72;4991030;28;20445;-71
2023/01/25 01:36:51;;;;;;;8.27;6.10;;;;;;;-143.84;67.08;45254.72;4991016;28;20876;-71
2023/01/25 01:39:18;;;;;;;6.27;5.60;;;;;;;-143.84;67.30;45245.19;4991225;28;20433;-70
2023/01/25 01:41:45;;;;;;;7.80;6.30;;;;;;;-143.84;67.65;45254.72;4990912;28;20451;-71
2023/01/25 01:44:17;;;;;;;8.47;5.83;;;;;;;-143.84;67.97;45239.50;4991150;28;20448;-71
2023/01/25 01:46:52;;;;;;;6.40;5.80;;;;;;;-143.84;67.68;45256.63;4991139;28;20445;-71
2023/01/25 01:49:24;;;;;;;11.80;6.70;;;;;;;-143.84;67.47;45258.53;5030372;28;20434;-70
2023/01/25 01:51:56;;;;;;;9.03;6.30;;;;;;;-143.84;67.85;45254.72;5030122;28;20431;-71
2023/01/25 01:54:27;;;;;;;10.17;6.57;;;;;;;-143.84;67.99;45254.72;5030059;28;20447;-71
2023/01/25 01:56:58;;;;;;;12.60;6.77;;;;;;;-143.84;68.22;45268.06;5030020;28;20451;-71
2023/01/25 01:59:31;;;;;;;14.73;6.93;;;;;;;-143.84;69.03;45245.19;5030434;28;20925;-72
2023/01/25 02:01:59;;;;;;;16.27;8.20;;;;;;;-143.84;69.04;45241.41;5027981;28;20505;-71
2023/01/25 02:04:27;;;;;;;10.53;7.60;;;;;;;-143.84;69.40;45254.72;5010082;28;20495;-71
2023/01/25 02:07:01;;;;;;;10.00;7.20;;;;;;;-143.84;69.17;45269.97;5009851;28;20440;-71
2023/01/25 02:09:31;;;;;;;11.30;8.00;;;;;;;-143.84;69.54;45249.00;5012850;28;20933;-71
2023/01/25 02:12:00;;;;;;;11.57;7.17;;;;;;;-143.84;70.39;45266.16;5017836;28;21030;-71
2023/01/25 02:14:29;;;;;;;11.40;7.73;;;;;;;-143.84;70.34;45249.00;5008470;28;20455;-71
2023/01/25 02:16:57;;;;;;;12.40;8.10;;;;;;;-143.84;70.75;45262.34;5001527;28;20530;-71
2023/01/25 02:19:33;;;;;;;9.90;7.33;;;;;;;-143.84;71.08;45241.41;5005055;28;20451;-71
2023/01/25 02:22:09;;;;;;;10.70;7.17;;;;;;;-143.84;71.13;45254.72;4990391;28;20538;-71
2023/01/25 02:24:39;;;;;;;14.07;8.30;;;;;;;-143.84;71.08;45256.63;4990578;28;20437;-71
2023/01/25 02:27:08;;;;;;;10.73;7.67;;;;;;;-143.84;71.59;45231.88;4990407;28;20444;-73
2023/01/25 02:29:36;;;;;;;15.10;8.83;;;;;;;-143.84;71.79;45273.78;5018201;28;20451;-74
2023/01/25 02:32:06;;;;;;;12.40;8.30;;;;;;;-143.84;72.11;45226.16;5029777;28;21127;-74
2023/01/25 02:34:34;;;;;;;15.53;9.77;;;;;;;-143.84;72.05;45268.06;5028404;28;20454;-73
2023/01/25 02:37:01;;;;;;;14.73;8.93;;;;;;;-143.84;72.40;45250.91;5029881;28;20521;-74
2023/01/25 02:39:29;;;;;;;17.03;8.77;;;;;;;-143.84;72.56;45277.56;5029442;28;21081;-74
2023/01/25 02:41:56;;;;;;;14.10;9.47;;;;;;;-143.84;72.35;45226.16;5029259;28;20438;-74
2023/01/25 02:44:29;;;;;;;15.40;10.03;;;;;;;-143.84;72.68;45224.25;5013782;28;20463;-74
2023/01/25 02:46:56;;;;;;;19.20;10.03;;;;;;;-143.84;72.82;45245.19;5009237;28;20463;-74
2023/01/25 02:49:23;;;;;;;16.63;11.40;;;;;;;-143.84;72.88;45216.63;5009553;28;20506;-74
2023/01/25 02:51:54;;;;;;;17.97;10.83;;;;;;;-143.84;72.76;45260.44;5009805;28;20509;-74
2023/01/25 02:54:22;;;;;;;18.67;10.87;;;;;;;-143.84;73.19;45260.44;5009733;28;20451;-74
2023/01/25 02:56:49;;;;;;;28.67;11.37;;;;;;;-143.84;73.31;45239.50;5009466;28;20447;-73
2023/01/25 02:59:17;;;;;;;23.47;12.67;;;;;;;-143.84;73.92;45201.41;5009365;28;20494;-74
2023/01/25 03:01:46;;;;;;;23.83;12.50;;;;;;;-143.84;73.68;45237.59;5005977;28;20535;-74
2023/01/25 03:04:13;;;;;;;16.70;10.20;;;;;;;-143.84;73.62;45231.88;5004782;28;20487;-74
2023/01/25 03:06:41;;;;;;;20.87;12.30;;;;;;;-143.84;73.55;45258.53;5009725;28;20440;-74
2023/01/25 03:09:11;;;;;;;20.70;11.30;;;;;;;-143.84;73.87;45243.31;5009873;28;20444;-73
2023/01/25 03:11:38;;;;;;;17.30;10.40;;;;;;;-143.84;73.90;45241.41;5009036;28;20455;-74
2023/01/25 03:14:05;;;;;;;17.30;10.83;;;;;;;-143.84;74.16;45205.22;5009169;28;20442;-74
2023/01/25 03:16:32;;;;;;;18.63;10.50;;;;;;;-143.84;74.78;45243.31;5010916;28;20451;-74
2023/01/25 03:19:01;;;;;;;20.80;11.67;;;;;;;-143.84;74.98;45180.47;5029260;28;20442;-73
2023/01/25 03:21:28;;;;;;;19.73;12.23;;;;;;;-143.84;75.49;45201.41;5029114;28;21169;-74
2023/01/25 03:23:57;;;;;;;22.10;11.10;;;;;;;-143.84;75.92;45197.59;5029102;28;20486;-73
2023/01/25 03:26:25;;;;;;;23.67;11.80;;;;;;;-143.84;76.01;45205.22;5028905;28;20509;-74
2023/01/25 03:28:52;;;;;;;25.07;12.63;;;;;;;-143.84;76.33;45186.16;5022372;28;20447;-74
2023/01/25 03:31:20;;;;;;;18.60;12.03;;;;;;;-143.84;76.80;45224.25;5009194;28;20439;-74
2023/01/25 03:33:47;;;;;;;20.60;11.90;;;;;;;-143.84;76.71;45178.56;5009108;28;20486;-73
2023/01/25 03:36:15;;;;;;;21.60;11.07;;;;;;;-143.84;76.77;45191.88;5009572;28;20882;-74
2023/01/25 03:38:43;;;;;;;19.20;10.70;;;;;;;-143.84;76.68;45201.41;5008518;28;20452;-74
2023/01/25 03:41:11;;;;;;;19.07;11.83;;;;;;;-143.84;76.66;45182.38;5008152;28;20463;-73
2023/01/25 03:43:39;;;;;;;23.20;12.97;;;;;;;-143.84;76.87;45209.03;5008695;28;20479;-74
2023/01/25 03:46:07;;;;;;;23.17;12.57;;;;;;;-143.84;76.57;45207.13;5010360;28;20526;-74
2023/01/25 03:48:34;;;;;;;22.47;12.57;;;;;;;-143.84;76.71;45180.47;5012311;28;20519;-74
2023/01/25 03:51:01;;;;;;;20.23;13.20;;;;;;;-143.84;76.84;45153.81;5012510;28;20789;-74
2023/01/25 03:53:31;;;;;;;22.20;12.20;;;;;;;-143.84;76.99;45209.03;5012804;28;20489;-74
2023/01/25 03:56:01;;;;;;;21.37;12.07;;;;;;;-143.84;76.66;45165.22;5012779;28;20814;-74
2023/01/25 03:58:29;;;;;;;26.60;13.50;;;;;;;-143.84;76.90;45142.38;5012880;28;20443;-74
2023/01/25 04:00:58;;;;;;;19.90;11.80;;;;;;;-143.84;77.27;45140.47;5013040;28;20443;-74
2023/01/25 04:03:26;;;;;;;21.60;13.00;;;;;;;-143.84;77.49;45153.81;5012826;28;20538;-74
2023/01/25 04:05:53;;;;;;;23.40;12.90;;;;;;;-143.84;77.60;45159.50;5012466;28;20502;-71
2023/01/25 04:08:21;;;;;;;18.40;11.77;;;;;;;-143.84;78.36;45148.09;5012421;28;20925;-71
2023/01/25 04:10:52;;;;;;;19.47;11.73;;;;;;;-143.84;78.93;45083.34;5012746;28;20490;-71
2023/01/25 04:13:20;;;;;;;22.70;13.07;;;;;;;-143.84;79.74;45037.66;5011837;28;20816;-71
2023/01/25 04:15:47;;;;;;;24.97;12.53;;;;;;;-143.84;80.39;44980.53;5012203;28;20517;-71
2023/01/25 04:18:15;;;;;;;24.43;13.60;;;;;;;-143.84;81.05;44900.53;5012216;28;20442;-72
2023/01/25 04:20:42;;;;;;;25.57;13.10;;;;;;;-143.84;81.86;44772.97;5012229;28;20502;-72
2023/01/25 04:23:10;;;;;;;22.83;12.87;;;;;;;-143.84;82.55;44681.59;5011942;28;20582;-71
2023/01/25 04:25:37;;;;;;;26.07;13.70;;;;;;;-143.84;82.64;44569.25;5012150;28;20443;-72
2023/01/25 04:28:06;;;;;;;20.53;12.50;;;;;;;-143.84;82.80;44502.63;5012058;28;20447;-71
2023/01/25 04:30:33;;;;;;;19.47;11.33;;;;;;;-143.84;82.63;44485.47;5029315;28;20454;-72
2023/01/25 04:33:03;;;;;;;18.57;11.63;;;;;;;-143.84;82.44;44580.69;5031639;28;20496;-71
2023/01/25 04:35:31;;;;;;;26.03;11.10;;;;;;;-143.84;82.57;44529.28;5031671;28;20446;-71
2023/01/25 04:37:59;;;;;;;16.63;10.37;;;;;;;-143.84;82.67;44567.34;5031843;28;20450;-71
2023/01/25 04:40:28;;;;;;;21.00;12.20;;;;;;;-143.84;82.90;44517.84;5031673;28;20468;-72
2023/01/25 04:42:55;;;;;;;24.90;12.60;;;;;;;-143.84;82.87;44456.94;5031532;28;20517;-72
2023/01/25 04:45:25;;;;;;;17.23;10.33;;;;;;;-143.84;82.94;44369.34;5031740;28;20449;-71
2023/01/25 04:47:57;;;;;;;18.33;10.70;;;;;;;-143.84;82.95;44394.09;5031223;28;20486;-71
2023/01/25 04:50:24;;;;;;;20.00;11.00;;;;;;;-143.84;82.83;44352.22;5031046;28;20509;-71
2023/01/25 04:52:52;;;;;;;18.03;9.93;;;;;;;-143.84;83.14;44297.00;5031841;28;20881;-81
2023/01/25 04:55:19;;;;;;;17.90;11.17;;;;;;;-143.84;83.35;44279.88;5034318;28;20442;-81
2023/01/25 04:57:48;;;;;;;18.90;11.33;;;;;;;-143.84;83.63;44234.19;5032986;28;20450;-81
2023/01/25 05:00:16;;;;;;;16.80;9.93;;;;;;;-143.84;83.73;44247.50;5034406;28;20426;-82
2023/01/25 05:02:45;;;;;;;21.83;11.07;;;;;;;-143.84;83.50;44222.75;5033750;28;20450;-81
2023/01/25 05:05:13;;;;;;;14.80;10.10;;;;;;;-143.84;83.80;44139.00;5034232;28;20438;-81
2023/01/25 05:07:40;;;;;;;18.43;10.60;;;;;;;-143.84;83.80;44131.38;5033700;28;20430;-79
2023/01/25 05:10:09;;;;;;;15.93;10.07;;;;;;;-143.84;84.41;44053.34;5033641;28;20442;-80
2023/01/25 05:12:36;;;;;;;18.57;10.07;;;;;;;-143.84;84.34;44047.63;5041077;28;20435;-77
2023/01/25 05:15:04;;;;;;;14.63;8.57;;;;;;;-143.84;85.22;43963.88;5037325;28;20446;-79
2023/01/25 05:17:31;;;;;;;16.30;8.77;;;;;;;-143.84;84.71;43975.28;5024417;28;21291;-74
2023/01/25 05:19:59;;;;;;;11.10;7.77;;;;;;;-143.84;84.58;44013.38;5011178;28;20467;-75
2023/01/25 05:22:26;;;;;;;9.20;6.93;;;;;;;-143.84;84.27;44013.38;5011123;28;20498;-74
2023/01/25 05:24:54;;;;;;;11.43;7.13;;;;;;;-143.84;84.54;44047.63;5011281;28;20586;-71
2023/01/25 05:27:21;;;;;;;12.70;7.37;;;;;;;-143.84;84.57;44005.75;5010826;28;20514;-70
2023/01/25 05:29:48;;;;;;;10.93;7.23;;;;;;;-143.84;84.67;44059.03;5010652;28;20953;-71
2023/01/25 05:32:18;;;;;;;13.77;8.90;;;;;;;-143.84;84.65;43979.09;5005838;28;20451;-70
2023/01/25 05:34:46;;;;;;;9.80;7.23;;;;;;;-143.84;84.75;43984.81;5008817;28;20459;-70
2023/01/25 05:37:17;;;;;;;14.93;7.77;;;;;;;-143.84;84.61;43982.91;5008778;28;20510;-71
2023/01/25 05:39:45;;;;;;;12.53;7.93;;;;;;;-143.84;84.96;43971.47;5009002;28;20883;-71
2023/01/25 05:42:14;;;;;;;13.20;8.30;;;;;;;-143.84;84.94;43973.38;5007182;28;20941;-72
2023/01/25 05:44:42;;;;;;;7.63;6.60;;;;;;;-143.84;84.75;43979.09;5009928;28;20475;-71
2023/01/25 05:47:13;;;;;;;13.80;8.53;;;;;;;-143.84;84.87;44005.75;5006022;28;20461;-74
2023/01/25 05:49:40;;;;;;;11.30;7.33;;;;;;;-143.84;84.57;43979.09;5009682;28;20458;-78
2023/01/25 05:52:07;;;;;;;10.53;7.90;;;;;;;-143.84;84.49;43990.53;5011058;28;20540;-75
2023/01/25 05:54:35;;;;;;;12.47;7.90;;;;;;;-143.84;84.94;44000.03;5010429;28;20482;-74
2023/01/25 05:57:02;;;;;;;10.43;7.03;;;;;;;-143.84;84.77;43952.44;5010768;28;21131;-74
2023/01/25 05:59:30;;;;;;;12.20;7.80;;;;;;;-143.84;85.00;43975.28;5010707;28;20504;-74
2023/01/25 06:01:57;;;;;;;14.77;8.90;;;;;;;-143.84;85.37;43927.69;5010594;28;20442;-74
2023/01/25 06:04:24;;;;;;;12.53;8.50;;;;;;;-143.84;84.94;43914.38;5010527;28;21068;-75
2023/01/25 06:06:51;;;;;;;11.17;7.67;;;;;;;-143.84;85.46;43929.59;5010640;28;20534;-75
2023/01/25 06:09:18;;;;;;;11.40;8.10;;;;;;;-143.84;85.85;43891.53;5010067;28;20443;-74
2023/01/25 06:11:46;;;;;;;13.27;8.33;;;;;;;-143.84;86.00;43885.81;5005829;28;20894;-75
2023/01/25 06:14:14;;;;;;;12.37;8.87;;;;;;;-143.84;86.05;43891.53;4988540;28;20970;-75
2023/01/25 06:16:41;;;;;;;14.73;9.50;;;;;;;-143.84;86.30;43891.53;4990983;28;20448;-71
2023/01/25 06:19:09;;;;;;;15.70;9.07;;;;;;;-143.84;86.26;43887.72;4990976;28;20440;-74
2023/01/25 06:21:36;;;;;;;17.60;9.73;;;;;;;-143.84;86.54;43891.53;4990592;28;20444;-74
2023/01/25 06:24:03;;;;;;;18.90;11.33;;;;;;;-143.84;86.53;43874.41;4990345;28;20487;-74
2023/01/25 06:26:30;;;;;;;21.90;13.10;;;;;;;-143.84;86.71;43895.34;4990702;28;20444;-74
2023/01/25 06:28:59;;;;;;;28.37;18.67;;;;;;;-143.84;86.45;43893.44;4993229;28;20506;-74
2023/01/25 06:31:26;;;;;;;25.97;17.30;;;;;;;-143.84;86.70;43899.16;5010399;28;20522;-74
2023/01/25 06:33:53;;;;;;;24.50;15.47;;;;;;;-143.84;87.24;43864.88;5010047;28;20696;-74
2023/01/25 06:36:21;;;;;;;22.93;12.83;;;;;;;-143.84;87.37;43855.38;5009742;28;20448;-71
2023/01/25 06:38:49;;;;;;;21.67;13.03;;;;;;;-143.84;87.42;43868.69;5009437;28;20973;-71
2023/01/25 06:41:17;;;;;;;19.27;12.13;;;;;;;-143.84;87.44;43897.25;4997420;28;20554;-71
2023/01/25 06:43:44;;;;;;;20.77;10.40;;;;;;;-143.84;87.28;43906.75;4989856;28;20484;-70
2023/01/25 06:46:12;;;;;;;17.27;9.77;;;;;;;-143.84;87.62;43887.72;4989901;28;20502;-70
2023/01/25 06:48:41;;;;;;;19.53;11.80;;;;;;;-143.84;87.71;43922.00;5004124;28;20553;-71
2023/01/25 06:51:10;;;;;;;19.30;11.10;;;;;;;-143.84;87.95;43923.91;5009205;28;20448;-71
2023/01/25 06:53:39;;;;;;;19.87;12.00;;;;;;;-143.84;88.65;43935.31;5009425;28;20444;-71
2023/01/25 06:56:09;;;;;;;15.30;9.47;;;;;;;-143.84;88.52;43927.69;5008948;28;20983;-71
2023/01/25 06:58:36;;;;;;;11.87;9.40;;;;;;;-143.84;88.43;43942.94;5009263;28;20450;-71
2023/01/25 07:01:06;;;;;;;20.70;11.10;;;;;;;-143.84;88.70;43922.00;5009048;28;20448;-71
2023/01/25 07:03:34;;;;;;;14.67;10.30;;;;;;;-143.84;88.88;43931.50;5009208;28;20495;-71
2023/01/25 07:06:03;;;;;;;17.80;11.20;;;;;;;-143.84;88.76;43927.69;5009410;28;20852;-71
2023/01/25 07:08:31;;;;;;;15.97;11.10;;;;;;;-143.84;88.90;43918.19;5009348;28;20444;-71
2023/01/25 07:11:00;;;;;;;17.43;11.30;;;;;;;-143.84;88.80;43922.00;5008859;28;20438;-71
2023/01/25 07:13:29;;;;;;;20.23;13.17;;;;;;;-143.84;88.50;43902.97;5009452;28;20439;-71
2023/01/25 07:15:57;;;;;;;20.60;11.10;;;;;;;-143.84;88.10;43925.78;5009168;28;20443;-71
2023/01/25 07:18:26;;;;;;;15.90;11.10;;;;;;;-143.84;88.36;43910.56;5009422;28;20439;-73
2023/01/25 07:20:54;;;;;;;20.50;11.43;;;;;;;-143.84;88.39;43902.97;5010203;28;20898;-73
2023/01/25 07:23:21;;;;;;;18.97;10.97;;;;;;;-143.84;87.82;43904.84;5013097;28;20813;-73
2023/01/25 07:25:50;;;;;;;16.53;9.57;;;;;;;-143.84;88.29;43912.47;5013353;28;20439;-73
2023/01/25 07:28:18;;;;;;;17.23;10.33;;;;;;;-143.84;88.13;43895.34;5013154;28;20447;-73
2023/01/25 07:30:46;;;;;;;16.87;10.97;;;;;;;-143.84;87.90;43937.22;5013467;28;20447;-74
2023/01/25 07:33:13;;;;;;;23.00;11.80;;;;;;;-143.84;87.86;43918.19;5013055;28;20439;-74
2023/01/25 07:35:40;;;;;;;14.33;10.33;;;;;;;-143.84;87.34;43891.53;5013171;28;20451;-73
2023/01/25 07:38:08;;;;;;;12.80;9.70;;;;;;;-143.84;86.76;43895.34;5013166;28;20439;-74
2023/01/25 07:40:36;;;;;;;11.80;8.67;;;;;;;-143.84;86.91;43904.84;5013320;28;20435;-74
2023/01/25 07:43:03;;;;;;;12.87;8.43;;;;;;;-143.84;86.67;43897.25;5012922;28;20446;-73
2023/01/25 07:45:31;;;;;;;14.00;8.87;;;;;;;-143.84;86.74;43883.91;5012938;28;20550;-73
2023/01/25 07:47:58;;;;;;;13.53;9.23;;;;;;;-143.84;86.05;43891.53;5021896;28;20538;-74
2023/01/25 07:50:29;;;;;;;14.17;8.97;;;;;;;-143.84;86.18;43885.81;5032136;28;20512;-73
2023/01/25 07:52:58;;;;;;;12.10;7.80;;;;;;;-143.84;85.97;43885.81;5031426;28;20442;-73
2023/01/25 07:55:26;;;;;;;12.97;8.40;;;;;;;-143.84;86.05;43891.53;5018490;28;20494;-73
2023/01/25 07:57:55;;;;;;;13.70;9.63;;;;;;;-143.84;85.57;43889.63;5012782;28;20451;-74
2023/01/25 08:00:22;;;;;;;9.63;7.20;;;;;;;-143.84;84.69;43916.28;5012755;28;20471;-74
2023/01/25 08:02:51;;;;;;;13.50;9.03;;;;;;;-143.84;85.12;43889.63;5012750;28;20880;-74
2023/01/25 08:05:18;;;;;;;12.43;8.50;;;;;;;-143.84;85.31;43897.25;5012660;28;20475;-74
2023/01/25 08:07:45;;;;;;;12.50;7.57;;;;;;;-143.84;85.34;43902.97;5012430;28;20452;-74
2023/01/25 08:10:13;;;;;;;12.20;8.40;;;;;;;-143.84;84.43;43902.97;5012708;28;20479;-74
2023/01/25 08:12:45;;;;;;;12.43;8.00;;;;;;;-143.84;84.06;43918.19;5015236;28;20514;-79
2023/01/25 08:15:12;;;;;;;11.23;8.23;;;;;;;-143.84;83.92;43973.38;5015514;28;20527;-79
2023/01/25 08:17:40;;;;;;;9.90;7.20;;;;;;;-143.84;82.98;44097.13;5017447;28;20489;-80
2023/01/25 08:20:08;;;;;;;14.63;7.97;;;;;;;-143.84;82.92;44059.03;5019799;28;20488;-80
2023/01/25 08:22:36;;;;;;;10.77;7.80;;;;;;;-143.84;82.44;44158.03;5019162;28;20462;-80
2023/01/25 08:25:03;;;;;;;9.83;7.20;;;;;;;-143.84;81.66;44272.25;5019565;28;20530;-80
2023/01/25 08:27:30;;;;;;;11.73;7.67;;;;;;;-143.84;82.50;44178.97;5018622;28;20449;-80
2023/01/25 08:29:59;;;;;;;12.07;8.20;;;;;;;-143.84;82.63;44158.03;5019312;28;20447;-80
2023/01/25 08:32:26;;;;;;;10.60;7.30;;;;;;;-143.84;81.53;44287.50;5009709;28;20523;-79
2023/01/25 08:34:53;;;;;;;10.80;7.03;;;;;;;-143.84;81.90;44238.00;5013934;28;20434;-80
2023/01/25 08:37:20;;;;;;;10.73;6.53;;;;;;;-143.84;81.61;44388.38;5022455;28;20462;-80
2023/01/25 08:39:48;;;;;;;11.83;8.07;;;;;;;-143.84;80.93;44536.88;5019893;28;20850;-80
2023/01/25 08:42:15;;;;;;;8.13;6.77;;;;;;;-143.84;81.35;44559.72;5020997;28;20508;-80
2023/01/25 08:44:42;;;;;;;10.10;7.50;;;;;;;-143.84;81.20;44487.38;5016593;28;20478;-79
2023/01/25 08:47:10;;;;;;;9.10;6.87;;;;;;;-143.84;81.02;44611.13;5015321;28;20575;-79
2023/01/25 08:49:37;;;;;;;7.93;6.20;;;;;;;-143.84;80.62;44607.34;5013564;28;20529;-79
2023/01/25 08:52:05;;;;;;;11.00;7.30;;;;;;;-143.84;81.03;44595.91;5020238;28;20453;-79
2023/01/25 08:54:32;;;;;;;8.80;6.90;;;;;;;-143.84;81.60;44475.97;5015468;28;20459;-79
2023/01/25 08:57:01;;;;;;;12.87;7.00;;;;;;;-143.84;81.07;44523.56;5023816;28;20454;-80
2023/01/25 08:59:28;;;;;;;7.03;6.10;;;;;;;-143.84;80.50;44664.44;5013604;28;20462;-80
2023/01/25 09:01:55;;;;;;;9.40;6.90;;;;;;;-143.84;80.39;44668.25;5018972;28;20455;-79
2023/01/25 09:04:27;;;;;;;9.60;6.80;;;;;;;-143.84;80.47;44611.13;5013481;28;20496;-71
2023/01/25 09:06:54;;;;;;;10.33;7.27;;;;;;;-143.84;80.80;44635.88;5010435;28;20544;-71
2023/01/25 09:09:23;;;;;;;10.20;6.63;;;;;;;-143.84;80.50;44588.28;5010543;28;20455;-71
2023/01/25 09:11:50;;;;;;;9.03;6.33;;;;;;;-143.84;80.98;44576.88;5010617;28;20471;-73
2023/01/25 09:14:18;;;;;;;19.60;7.20;;;;;;;-143.84;81.42;44523.56;5010290;28;20453;-74
2023/01/25 09:16:45;;;;;;;8.53;6.30;;;;;;;-143.84;81.04;44495.00;5010279;28;20452;-74
2023/01/25 09:19:12;;;;;;;10.57;7.20;;;;;;;-143.84;81.64;44458.81;5010379;28;20946;-74
2023/01/25 09:21:40;;;;;;;9.00;7.03;;;;;;;-143.84;81.03;44472.16;5018922;28;20458;-74
2023/01/25 09:24:08;;;;;;;7.13;6.37;;;;;;;-143.84;81.33;44529.28;5018398;28;20459;-74
2023/01/25 09:26:38;;;;;;;9.03;6.87;;;;;;;-143.84;81.38;44460.72;5018742;28;20447;-74
2023/01/25 09:29:06;;;;;;;8.80;6.17;;;;;;;-143.84;81.15;44447.41;5010646;28;20465;-76
2023/01/25 09:31:34;;;;;;;8.83;6.10;;;;;;;-143.84;80.81;44576.88;5010747;28;20537;-76
2023/01/25 09:34:01;;;;;;;8.97;6.77;;;;;;;-143.84;81.01;44628.28;5011180;28;20450;-76
2023/01/25 09:36:28;;;;;;;12.53;6.57;;;;;;;-143.84;80.67;44561.63;5011164;28;20492;-76
2023/01/25 09:38:57;;;;;;;10.37;7.47;;;;;;;-143.84;81.27;44563.53;5010387;28;21049;-77
2023/01/25 09:41:42;;;;;;;8.20;6.33;;;;;;;-143.84;80.14;44651.13;5010150;28;20514;-76
2023/01/25 09:44:24;;;;;;;9.97;6.67;;;;;;;-143.84;80.34;44673.97;5009457;28;20500;-76
2023/01/25 09:46:55;;;;;;;9.97;6.57;;;;;;;-143.84;80.60;44675.88;5010059;28;20554;-76
2023/01/25 09:49:35;;;;;;;9.30;6.20;;;;;;;-143.84;79.59;44792.00;5010023;28;21136;-76
2023/01/25 09:52:33;;;;;;;5.93;5.03;;;;;;;-143.84;79.15;44881.50;5010201;28;20471;-76
2023/01/25 09:55:03;;;;;;;10.43;6.80;;;;;;;-143.84;79.21;44881.50;5009071;28;20459;-76
2023/01/25 09:57:33;;;;;;;10.20;7.27;;;;;;;-143.84;79.29;44883.41;5011340;28;20967;-76
2023/01/25 10:00:06;;;;;;;9.50;8.13;;;;;;;-143.84;79.07;44858.66;5009759;28;20876;-76
2023/01/25 10:02:40;;;;;;;10.63;7.67;;;;;;;-143.84;78.41;44974.81;5011222;28;20467;-76
2023/01/25 10:05:14;;;;;;;10.90;7.00;;;;;;;-143.84;78.65;44950.06;5009626;28;21030;-76
2023/01/25 10:07:53;;;;;;;9.13;6.60;;;;;;;-143.84;78.42;44953.88;5016156;28;20514;-78
2023/01/25 10:10:28;;;;;;;14.60;6.93;;;;;;;-143.84;78.48;44942.44;5015422;28;20507;-78
2023/01/25 10:12:55;;;;;;;9.40;6.67;;;;;;;-143.84;78.02;45001.47;5015484;28;20458;-78
2023/01/25 10:15:30;;;;;;;8.10;6.33;;;;;;;-143.84;78.34;44938.63;5019643;28;20516;-78
2023/01/25 10:18:04;;;;;;;11.17;7.07;;;;;;;-143.84;78.34;44925.31;5005291;28;20459;-77
2023/01/25 10:20:40;;;;;;;8.90;6.70;;;;;;;-143.84;78.05;45003.38;5003166;28;20785;-78
2023/01/25 10:23:49;;;;;;;8.83;6.47;;;;;;;-143.84;77.90;44988.13;5005771;28;20455;-78
2023/01/25 10:26:25;;;;;;;9.23;6.10;;;;;;;-143.84;77.40;44988.13;5015634;28;20493;-78
2023/01/25 10:28:59;;;;;;;7.00;5.80;;;;;;;-143.84;77.41;45028.13;5006481;28;20466;-78
2023/01/25 10:31:34;;;;;;;7.03;5.93;;;;;;;-143.84;77.60;44988.13;5005760;28;20527;-78
2023/01/25 10:34:03;;;;;;;6.80;5.67;;;;;;;-143.84;78.41;44942.44;5002448;28;21009;-78
2023/01/25 10:36:31;;;;;;;6.80;5.67;;;;;;;-143.84;78.18;44978.63;5002217;28;20482;-78
2023/01/25 10:39:00;;;;;;;10.97;6.90;;;;;;;-143.84;78.47;44951.97;5014441;28;20448;-78
2023/01/25 10:41:39;;;;;;;8.57;6.87;;;;;;;-143.84;77.86;44978.63;5011125;28;20455;-78
2023/01/25 10:44:24;;;;;;;9.13;7.07;;;;;;;-143.84;77.22;45012.88;5010233;28;20545;-78
2023/01/25 10:46:59;;;;;;;8.87;5.60;;;;;;;-143.84;77.32;45033.84;5015302;28;20469;-74
2023/01/25 10:49:35;;;;;;;8.20;6.33;;;;;;;-143.84;77.97;45012.88;5005668;28;20848;-73
2023/01/25 10:52:14;;;;;;;6.57;5.40;;;;;;;-143.84;78.13;45016.69;5002698;28;20455;-73
2023/01/25 10:54:41;;;;;;;10.10;7.17;;;;;;;-143.84;78.82;44910.06;5002986;28;20487;-78
2023/01/25 10:57:17;;;;;;;9.77;7.10;;;;;;;-143.84;79.19;44875.78;5002826;28;20448;-78
2023/01/25 10:59:47;;;;;;;8.60;6.43;;;;;;;-143.84;79.82;44712.06;5000966;28;20457;-78
2023/01/25 11:02:40;;;;;;;11.10;7.17;;;;;;;-143.84;80.64;44578.78;5009381;28;20504;-78
2023/01/25 11:05:28;;;;;;;9.80;7.10;;;;;;;-143.84;81.27;44426.47;5010146;28;20565;-73
2023/01/25 11:07:56;;;;;;;11.10;7.37;;;;;;;-143.84;81.44;44409.34;5002282;28;20460;-73
2023/01/25 11:10:32;;;;;;;11.70;7.07;;;;;;;-143.84;81.72;44251.31;5001020;28;20458;-73
2023/01/25 11:13:33;;;;;;;8.97;7.17;;;;;;;-143.84;82.15;44169.47;5006781;28;20519;-73
2023/01/25 11:16:20;;;;;;;15.73;8.23;;;;;;;-143.84;82.18;44173.25;5008679;28;20826;-73
2023/01/25 11:18:53;;;;;;;11.20;7.53;;;;;;;-143.84;82.42;44102.84;5004697;28;20583;-73